Time,TemperatureF,DewpointF,PressureIn,WindDirection,WindDirectionDegrees,WindSpeedMPH,WindSpeedGustMPH,Humidity,HourlyPrecipIn,Conditions,Clouds,dailyrainin,SolarRadiationWatts/m^2,SoftwareType,DateUTC
2013-02-01 00:02:00,50.2,41.5,30.07,NE,41,0.0,0.0,72,0.00,,---,0.00,0.00,VWS V14.00,2013-02-01 08:02:00,
2013-02-01 00:07:00,50.1,41.1,30.07,NE,41,0.0,0.0,71,0.00,,---,0.00,0.00,VWS V14.00,2013-02-01 08:07:00,
2013-02-01 00:12:00,50.2,40.4,30.07,NE,41,0.0,0.0,69,0.00,,---,0.00,0.00,VWS V14.00,2013-02-01 08:12:00,
2013-02-01 00:18:00,50.2,40.4,30.07,NE,41,0.0,0.0,69,0.00,,---,0.00,0.00,VWS V14.00,2013-02-01 08:18:00,
2013-02-01 00:24:00,50.4,39.5,30.07,NE,41,0.0,0.0,66,0.00,,---,0.00,0.00,VWS V14.00,2013-02-01 08:24:00,
2013-02-01 00:29:00,50.7,39.8,30.07,NE,41,0.0,0.0,66,0.00,,---,0.00,0.00,VWS V14.00,2013-02-01 08:29:00,
2013-02-01 00:34:00,50.5,39.6,30.06,NE,41,0.0,0.0,66,0.00,,---,0.00,0.00,VWS V14.00,2013-02-01 08:34:00,
2013-02-01 00:39:00,50.4,39.1,30.06,NE,41,0.0,0.0,65,0.00,,---,0.00,0.00,VWS V14.00,2013-02-01 08:39:00,
2013-02-01 00:44:00,51.0,39.3,30.06,NE,41,0.0,0.0,64,0.00,,---,0.00,0.00,VWS V14.00,2013-02-01 08:44:00,
2013-02-01 00:49:00,51.1,39.0,30.07,NE,41,0.0,0.0,63,0.00,,---,0.00,0.00,VWS V14.00,2013-02-01 08:49:00,
2013-02-01 00:54:00,51.1,39.0,30.07,NE,41,0.0,0.0,63,0.00,,---,0.00,0.00,VWS V14.00,2013-02-01 08:54:00,
2013-02-01 00:59:00,51.0,39.3,30.07,NE,41,0.0,0.0,64,0.00,,---,0.00,0.00,VWS V14.00,2013-02-01 08:59:00,
2013-02-01 01:04:00,50.7,39.4,30.07,NE,41,0.0,0.0,65,0.00,,---,0.00,0.00,VWS V14.00,2013-02-01 09:04:00,
2013-02-01 01:09:00,50.4,39.1,30.07,NE,41,0.0,0.0,65,0.00,,---,0.00,0.00,VWS V14.00,2013-02-01 09:09:00,
2013-02-01 01:14:00,50.4,38.7,30.07,NE,41,0.0,0.0,64,0.00,,---,0.00,0.00,VWS V14.00,2013-02-01 09:14:00,
2013-02-01 01:19:00,50.4,38.7,30.07,NE,41,0.0,0.0,64,0.00,,---,0.00,0.00,VWS V14.00,2013-02-01 09:19:00,
2013-02-01 01:24:00,50.5,38.4,30.07,NE,41,0.0,0.0,63,0.00,,---,0.00,0.00,VWS V14.00,2013-02-01 09:24:00,
2013-02-01 01:29:00,50.7,38.6,30.07,NE,41,0.0,0.0,63,0.00,,---,0.00,0.00,VWS V14.00,2013-02-01 09:29:00,
2013-02-01 01:34:00,50.4,38.7,30.07,NE,41,0.0,0.0,64,0.00,,---,0.00,0.00,VWS V14.00,2013-02-01 09:34:00,
2013-02-01 01:39:00,50.4,38.7,30.07,NE,41,0.0,0.0,64,0.00,,---,0.00,0.00,VWS V14.00,2013-02-01 09:39:00,
2013-02-01 01:44:00,50.4,38.7,30.07,NE,41,0.0,0.0,64,0.00,,---,0.00,0.00,VWS V14.00,2013-02-01 09:44:00,
2013-02-01 01:49:00,50.4,38.3,30.07,NE,41,0.0,0.0,63,0.00,,---,0.00,0.00,VWS V14.00,2013-02-01 09:49:00,
2013-02-01 01:54:00,50.2,38.5,30.07,NE,41,0.0,0.0,64,0.00,,---,0.00,0.00,VWS V14.00,2013-02-01 09:54:00,
2013-02-01 01:59:00,50.4,39.9,30.07,NE,41,0.0,0.0,67,0.00,,---,0.00,0.00,VWS V14.00,2013-02-01 09:59:00,
2013-02-01 02:04:00,50.7,40.2,30.07,NE,41,0.0,0.0,67,0.00,,---,0.00,0.00,VWS V14.00,2013-02-01 10:04:00,
2013-02-01 02:09:00,51.1,41.3,30.07,NE,41,0.0,0.0,69,0.00,,---,0.00,0.00,VWS V14.00,2013-02-01 10:09:00,
2013-02-01 02:14:00,51.3,41.9,30.07,NE,41,0.0,0.0,70,0.00,,---,0.00,0.00,VWS V14.00,2013-02-01 10:14:00,
2013-02-01 02:19:00,51.0,41.6,30.07,NE,41,0.0,0.0,70,0.00,,---,0.00,0.00,VWS V14.00,2013-02-01 10:19:00,
2013-02-01 02:24:00,50.8,41.8,30.07,NE,41,0.0,0.0,71,0.00,,---,0.00,0.00,VWS V14.00,2013-02-01 10:24:00,
2013-02-01 02:29:00,50.8,41.8,30.07,NE,41,0.0,0.0,71,0.00,,---,0.00,0.00,VWS V14.00,2013-02-01 10:29:00,
2013-02-01 02:34:00,50.5,41.8,30.07,NE,41,0.0,0.0,72,0.00,,---,0.00,0.00,VWS V14.00,2013-02-01 10:34:00,
2013-02-01 02:39:00,50.1,41.1,30.07,NE,41,0.0,0.0,71,0.00,,---,0.00,0.00,VWS V14.00,2013-02-01 10:39:00,
2013-02-01 02:44:00,49.9,40.9,30.07,NE,41,0.0,0.0,71,0.00,,---,0.00,0.00,VWS V14.00,2013-02-01 10:44:00,
2013-02-01 02:49:00,49.8,40.4,30.07,NE,41,0.0,0.0,70,0.00,,---,0.00,0.00,VWS V14.00,2013-02-01 10:49:00,
2013-02-01 02:54:00,49.6,39.9,30.07,NE,41,0.0,0.0,69,0.00,,---,0.00,0.00,VWS V14.00,2013-02-01 10:54:00,
2013-02-01 02:59:00,49.6,39.5,30.07,NE,41,0.0,0.0,68,0.00,,---,0.00,0.00,VWS V14.00,2013-02-01 10:59:00,
2013-02-01 03:04:00,49.9,38.6,30.07,NE,41,0.0,0.0,65,0.00,,---,0.00,0.00,VWS V14.00,2013-02-01 11:04:00,
2013-02-01 03:09:00,50.2,38.5,30.07,NE,41,0.0,0.0,64,0.00,,---,0.00,0.00,VWS V14.00,2013-02-01 11:09:00,
2013-02-01 03:14:00,50.2,38.9,30.07,NE,41,0.0,0.0,65,0.00,,---,0.00,0.00,VWS V14.00,2013-02-01 11:14:00,
2013-02-01 03:19:00,50.2,38.9,30.07,NE,41,0.0,0.0,65,0.00,,---,0.00,0.00,VWS V14.00,2013-02-01 11:19:00,
2013-02-01 03:25:00,50.1,38.8,30.07,NE,41,0.0,0.0,65,0.00,,---,0.00,0.00,VWS V14.00,2013-02-01 11:25:00,
2013-02-01 03:30:00,50.1,38.4,30.07,NE,41,0.0,0.0,64,0.00,,---,0.00,0.00,VWS V14.00,2013-02-01 11:30:00,
2013-02-01 03:35:00,50.4,37.9,30.07,NE,41,0.0,0.0,62,0.00,,---,0.00,0.00,VWS V14.00,2013-02-01 11:35:00,
2013-02-01 03:40:00,50.4,38.3,30.07,NE,41,0.0,0.0,63,0.00,,---,0.00,0.00,VWS V14.00,2013-02-01 11:40:00,
2013-02-01 03:45:00,50.4,38.3,30.07,NE,41,0.0,0.0,63,0.00,,---,0.00,0.00,VWS V14.00,2013-02-01 11:45:00,
2013-02-01 03:50:00,50.1,38.4,30.07,NE,41,0.0,0.0,64,0.00,,---,0.00,0.00,VWS V14.00,2013-02-01 11:50:00,
2013-02-01 03:55:00,49.9,38.2,30.07,NE,41,0.0,0.0,64,0.00,,---,0.00,0.00,VWS V14.00,2013-02-01 11:55:00,
2013-02-01 04:00:00,49.6,38.3,30.07,NE,41,0.0,0.0,65,0.00,,---,0.00,0.00,VWS V14.00,2013-02-01 12:00:00,
2013-02-01 04:05:00,49.5,38.2,30.06,NE,41,0.0,0.0,65,0.00,,---,0.00,0.00,VWS V14.00,2013-02-01 12:05:00,
2013-02-01 04:10:00,49.5,38.2,30.06,NE,41,0.0,0.0,65,0.00,,---,0.00,0.00,VWS V14.00,2013-02-01 12:10:00,
2013-02-01 04:15:00,49.4,38.1,30.06,NE,41,0.0,0.0,65,0.00,,---,0.00,0.00,VWS V14.00,2013-02-01 12:15:00,
2013-02-01 04:20:00,49.4,38.1,30.06,NE,41,0.0,0.0,65,0.00,,---,0.00,0.00,VWS V14.00,2013-02-01 12:20:00,
2013-02-01 04:25:00,49.4,38.1,30.06,NE,41,0.0,0.0,65,0.00,,---,0.00,0.00,VWS V14.00,2013-02-01 12:25:00,
2013-02-01 04:30:00,49.5,38.2,30.06,NE,41,0.0,0.0,65,0.00,,---,0.00,0.00,VWS V14.00,2013-02-01 12:30:00,
2013-02-01 04:35:00,49.8,38.1,30.05,NE,41,0.0,0.0,64,0.00,,---,0.00,0.00,VWS V14.00,2013-02-01 12:35:00,
2013-02-01 04:40:00,49.9,37.8,30.05,NE,41,0.0,0.0,63,0.00,,---,0.00,0.00,VWS V14.00,2013-02-01 12:40:00,
2013-02-01 04:45:00,49.8,37.7,30.05,NE,41,0.0,0.0,63,0.00,,---,0.00,0.00,VWS V14.00,2013-02-01 12:45:00,
2013-02-01 04:50:00,49.8,38.1,30.06,NE,41,0.0,0.0,64,0.00,,---,0.00,0.00,VWS V14.00,2013-02-01 12:50:00,
2013-02-01 04:55:00,49.5,38.2,30.06,NE,41,0.0,0.0,65,0.00,,---,0.00,0.00,VWS V14.00,2013-02-01 12:55:00,
2013-02-01 05:00:00,49.4,38.1,30.06,NE,41,0.0,0.0,65,0.00,,---,0.00,0.00,VWS V14.00,2013-02-01 13:00:00,
2013-02-01 05:05:00,49.1,37.9,30.07,NE,41,0.0,0.0,65,0.00,,---,0.00,0.00,VWS V14.00,2013-02-01 13:05:00,
2013-02-01 05:10:00,48.8,38.0,30.07,NE,41,0.0,0.0,66,0.00,,---,0.00,0.00,VWS V14.00,2013-02-01 13:10:00,
2013-02-01 05:15:00,48.8,38.0,30.07,NE,41,0.0,0.0,66,0.00,,---,0.00,0.00,VWS V14.00,2013-02-01 13:15:00,
2013-02-01 05:20:00,48.9,38.4,30.07,NE,41,0.0,0.0,67,0.00,,---,0.00,0.00,VWS V14.00,2013-02-01 13:20:00,
2013-02-01 05:25:00,49.2,38.7,30.07,NE,41,0.0,0.0,67,0.00,,---,0.00,0.00,VWS V14.00,2013-02-01 13:25:00,
2013-02-01 05:30:00,49.2,38.7,30.07,NE,41,0.0,0.0,67,0.00,,---,0.00,0.00,VWS V14.00,2013-02-01 13:30:00,
2013-02-01 05:35:00,49.4,39.3,30.08,NE,41,0.0,0.0,68,0.00,,---,0.00,0.00,VWS V14.00,2013-02-01 13:35:00,
2013-02-01 05:40:00,49.4,40.0,30.08,NE,41,0.0,0.0,70,0.00,,---,0.00,0.00,VWS V14.00,2013-02-01 13:40:00,
2013-02-01 05:45:00,49.5,40.5,30.08,NE,41,0.0,0.0,71,0.00,,---,0.00,0.00,VWS V14.00,2013-02-01 13:45:00,
2013-02-01 05:50:00,49.4,40.4,30.08,NE,41,0.0,0.0,71,0.00,,---,0.00,0.00,VWS V14.00,2013-02-01 13:50:00,
2013-02-01 05:55:00,49.2,40.9,30.08,NE,41,0.0,0.0,73,0.00,,---,0.00,0.00,VWS V14.00,2013-02-01 13:55:00,
2013-02-01 06:00:00,49.1,40.5,30.08,NE,41,0.0,0.0,72,0.00,,---,0.00,0.00,VWS V14.00,2013-02-01 14:00:00,
2013-02-01 06:05:00,49.1,40.8,30.08,NE,41,0.0,0.0,73,0.00,,---,0.00,0.00,VWS V14.00,2013-02-01 14:05:00,
2013-02-01 06:10:00,48.9,41.0,30.08,NE,41,0.0,0.0,74,0.00,,---,0.00,0.00,VWS V14.00,2013-02-01 14:10:00,
2013-02-01 06:15:00,48.8,41.2,30.08,NE,41,0.0,0.0,75,0.00,,---,0.00,0.00,VWS V14.00,2013-02-01 14:15:00,
2013-02-01 06:20:00,48.8,41.6,30.09,NE,41,0.0,0.0,76,0.00,,---,0.00,0.00,VWS V14.00,2013-02-01 14:20:00,
2013-02-01 06:25:00,48.8,41.9,30.09,NE,41,0.0,0.0,77,0.00,,---,0.00,0.00,VWS V14.00,2013-02-01 14:25:00,
2013-02-01 06:30:00,48.9,42.7,30.09,NE,41,0.0,0.0,79,0.00,,---,0.00,0.00,VWS V14.00,2013-02-01 14:30:00,
2013-02-01 06:35:00,48.9,43.0,30.09,NE,41,0.0,0.0,80,0.00,,---,0.00,0.00,VWS V14.00,2013-02-01 14:35:00,
2013-02-01 06:40:00,48.8,42.9,30.09,NE,41,0.0,0.0,80,0.00,,---,0.00,0.00,VWS V14.00,2013-02-01 14:40:00,
2013-02-01 06:45:00,48.8,42.9,30.09,NE,41,0.0,0.0,80,0.00,,---,0.00,5.00,VWS V14.00,2013-02-01 14:45:00,
2013-02-01 06:50:00,48.6,42.4,30.08,NE,41,0.0,0.0,79,0.00,,---,0.00,5.00,VWS V14.00,2013-02-01 14:50:00,
2013-02-01 06:55:00,48.5,41.6,30.08,NE,41,0.0,0.0,77,0.00,,---,0.00,7.00,VWS V14.00,2013-02-01 14:55:00,
2013-02-01 07:00:00,48.5,41.3,30.08,NE,41,0.0,0.0,76,0.00,,---,0.00,11.00,VWS V14.00,2013-02-01 15:00:00,
2013-02-01 07:05:00,48.6,40.7,30.08,NE,41,0.0,0.0,74,0.00,,---,0.00,12.00,VWS V14.00,2013-02-01 15:05:00,
2013-02-01 07:10:00,48.8,40.5,30.08,NE,41,0.0,0.0,73,0.00,,---,0.00,14.00,VWS V14.00,2013-02-01 15:10:00,
2013-02-01 07:15:00,49.1,40.1,30.08,NE,41,0.0,0.0,71,0.00,,---,0.00,18.00,VWS V14.00,2013-02-01 15:15:00,
2013-02-01 07:20:00,49.5,40.1,30.09,NE,41,0.0,0.0,70,0.00,,---,0.00,23.00,VWS V14.00,2013-02-01 15:20:00,
2013-02-01 07:26:00,49.9,40.2,30.09,NE,41,0.0,0.0,69,0.00,,---,0.00,26.00,VWS V14.00,2013-02-01 15:26:00,
2013-02-01 07:31:00,50.4,40.6,30.09,NE,41,0.0,0.0,69,0.00,,---,0.00,28.00,VWS V14.00,2013-02-01 15:31:00,
2013-02-01 07:36:00,50.8,40.6,30.08,NE,41,0.0,0.0,68,0.00,,---,0.00,30.00,VWS V14.00,2013-02-01 15:36:00,
2013-02-01 07:41:00,51.3,41.1,30.08,NE,41,0.0,0.0,68,0.00,,---,0.00,33.00,VWS V14.00,2013-02-01 15:41:00,
2013-02-01 07:46:00,51.7,41.5,30.08,NE,41,0.0,0.0,68,0.00,,---,0.00,35.00,VWS V14.00,2013-02-01 15:46:00,
2013-02-01 07:51:00,52.8,42.2,30.08,NE,41,0.0,0.0,67,0.00,,---,0.00,35.00,VWS V14.00,2013-02-01 15:51:00,
2013-02-01 07:56:00,54.1,42.2,30.08,NE,41,0.0,0.0,64,0.00,,---,0.00,128.00,VWS V14.00,2013-02-01 15:56:00,
2013-02-01 08:01:00,55.3,42.1,30.07,NE,41,0.0,0.0,61,0.00,,---,0.00,179.00,VWS V14.00,2013-02-01 16:01:00,
2013-02-01 08:06:00,55.9,41.3,30.07,NE,41,0.0,0.0,58,0.00,,---,0.00,193.00,VWS V14.00,2013-02-01 16:06:00,
2013-02-01 08:11:00,56.6,42.0,30.07,NE,41,0.0,0.0,58,0.00,,---,0.00,207.00,VWS V14.00,2013-02-01 16:11:00,
2013-02-01 08:16:00,57.0,42.8,30.07,NE,41,0.0,0.0,59,0.00,,---,0.00,218.00,VWS V14.00,2013-02-01 16:16:00,
2013-02-01 08:21:00,57.3,43.5,30.07,NE,41,0.0,0.0,60,0.00,,---,0.00,229.00,VWS V14.00,2013-02-01 16:21:00,
2013-02-01 08:26:00,57.6,44.7,30.07,NE,41,0.0,0.0,62,0.00,,---,0.00,241.00,VWS V14.00,2013-02-01 16:26:00,
2013-02-01 08:31:00,58.1,44.7,30.07,NE,41,0.0,0.0,61,0.00,,---,0.00,258.00,VWS V14.00,2013-02-01 16:31:00,
2013-02-01 08:36:00,58.6,44.8,30.07,NE,41,0.0,0.0,60,0.00,,---,0.00,274.00,VWS V14.00,2013-02-01 16:36:00,
2013-02-01 08:41:00,59.3,45.9,30.07,NE,41,0.0,0.0,61,0.00,,---,0.00,288.00,VWS V14.00,2013-02-01 16:41:00,
2013-02-01 08:46:00,60.2,46.3,30.07,NE,41,0.0,0.0,60,0.00,,---,0.00,304.00,VWS V14.00,2013-02-01 16:46:00,
2013-02-01 08:51:00,60.7,46.8,30.07,NE,41,0.0,0.0,60,0.00,,---,0.00,316.00,VWS V14.00,2013-02-01 16:51:00,
2013-02-01 08:56:00,60.9,45.6,30.07,NE,41,0.0,0.0,57,0.00,,---,0.00,330.00,VWS V14.00,2013-02-01 16:56:00,
2013-02-01 09:01:00,60.9,44.6,30.07,NE,51,0.0,0.0,55,0.00,,---,0.00,345.00,VWS V14.00,2013-02-01 17:01:00,
2013-02-01 09:06:00,61.0,46.1,30.07,NE,51,0.0,0.0,58,0.00,,---,0.00,355.00,VWS V14.00,2013-02-01 17:06:00,
2013-02-01 09:11:00,60.9,46.9,30.07,NE,51,0.0,0.0,60,0.00,,---,0.00,359.00,VWS V14.00,2013-02-01 17:11:00,
2013-02-01 09:16:00,61.0,48.3,30.08,NE,51,0.0,0.0,63,0.00,,---,0.00,367.00,VWS V14.00,2013-02-01 17:16:00,
2013-02-01 09:21:00,61.0,48.8,30.08,NE,51,0.0,0.0,64,0.00,,---,0.00,390.00,VWS V14.00,2013-02-01 17:21:00,
2013-02-01 09:26:00,61.3,48.6,30.08,NE,51,0.0,0.0,63,0.00,,---,0.00,392.00,VWS V14.00,2013-02-01 17:26:00,
2013-02-01 09:31:00,61.6,48.0,30.09,NE,51,0.0,0.0,61,0.00,,---,0.00,415.00,VWS V14.00,2013-02-01 17:31:00,
2013-02-01 09:36:00,62.0,47.5,30.09,NE,51,0.0,0.0,59,0.00,,---,0.00,425.00,VWS V14.00,2013-02-01 17:36:00,
2013-02-01 09:41:00,62.6,49.0,30.09,NE,51,0.0,0.0,61,0.00,,---,0.00,431.00,VWS V14.00,2013-02-01 17:41:00,
2013-02-01 09:46:00,62.9,48.4,30.09,NE,51,0.0,0.0,59,0.00,,---,0.00,439.00,VWS V14.00,2013-02-01 17:46:00,
2013-02-01 09:51:00,63.1,47.2,30.09,NE,51,0.0,0.0,56,0.00,,---,0.00,466.00,VWS V14.00,2013-02-01 17:51:00,
2013-02-01 09:56:00,63.2,45.8,30.09,NE,51,0.0,0.0,53,0.00,,---,0.00,473.00,VWS V14.00,2013-02-01 17:56:00,
2013-02-01 10:01:00,63.5,45.1,30.09,ENE,66,0.0,0.0,51,0.00,,---,0.00,483.00,VWS V14.00,2013-02-01 18:01:00,
2013-02-01 10:06:00,63.9,45.4,30.09,ENE,66,0.0,0.0,51,0.00,,---,0.00,490.00,VWS V14.00,2013-02-01 18:06:00,
2013-02-01 10:11:00,64.2,45.2,30.09,ENE,66,0.0,0.0,50,0.00,,---,0.00,497.00,VWS V14.00,2013-02-01 18:11:00,
2013-02-01 10:16:00,64.8,45.7,30.09,ENE,66,0.0,0.0,50,0.00,,---,0.00,504.00,VWS V14.00,2013-02-01 18:16:00,
2013-02-01 10:21:00,65.5,45.8,30.09,ENE,66,0.0,0.0,49,0.00,,---,0.00,519.00,VWS V14.00,2013-02-01 18:21:00,
2013-02-01 10:26:00,66.3,45.5,30.09,ENE,66,0.0,0.0,47,0.00,,---,0.00,524.00,VWS V14.00,2013-02-01 18:26:00,
2013-02-01 10:31:00,66.8,44.2,30.09,ENE,66,0.0,0.0,44,0.00,,---,0.00,529.00,VWS V14.00,2013-02-01 18:31:00,
2013-02-01 10:36:00,67.4,47.0,30.09,ENE,72,0.0,0.0,48,0.00,,---,0.00,524.00,VWS V14.00,2013-02-01 18:36:00,
2013-02-01 10:41:00,67.9,47.5,30.09,ENE,72,0.0,0.0,48,0.00,,---,0.00,545.00,VWS V14.00,2013-02-01 18:41:00,
2013-02-01 10:46:00,68.1,47.1,30.10,ENE,72,0.0,0.0,47,0.00,,---,0.00,548.00,VWS V14.00,2013-02-01 18:46:00,
2013-02-01 10:51:00,68.3,47.3,30.10,ENE,72,0.0,0.0,47,0.00,,---,0.00,540.00,VWS V14.00,2013-02-01 18:51:00,
2013-02-01 10:56:00,68.1,48.8,30.10,ENE,72,0.0,0.0,50,0.00,,---,0.00,545.00,VWS V14.00,2013-02-01 18:56:00,
2013-02-01 11:01:00,68.4,48.0,30.10,ENE,72,0.0,0.0,48,0.00,,---,0.00,550.00,VWS V14.00,2013-02-01 19:01:00,
2013-02-01 11:06:00,69.4,47.7,30.10,ENE,72,0.0,0.0,46,0.00,,---,0.00,563.00,VWS V14.00,2013-02-01 19:06:00,
2013-02-01 11:11:00,70.4,47.5,30.10,ENE,72,0.0,0.0,44,0.00,,---,0.00,571.00,VWS V14.00,2013-02-01 19:11:00,
2013-02-01 11:16:00,71.1,44.9,30.10,ENE,72,0.0,0.0,39,0.00,,---,0.00,577.00,VWS V14.00,2013-02-01 19:16:00,
2013-02-01 11:21:00,70.8,43.3,30.10,South,179,3.0,6.0,37,0.00,,---,0.00,566.00,VWS V14.00,2013-02-01 19:21:00,
2013-02-01 11:26:00,68.4,43.2,30.10,South,172,0.0,6.0,40,0.00,,---,0.00,584.00,VWS V14.00,2013-02-01 19:26:00,
2013-02-01 11:31:00,68.1,44.8,30.12,SSE,168,0.0,2.0,43,0.00,,---,0.00,534.00,VWS V14.00,2013-02-01 19:31:00,
2013-02-01 11:36:00,66.1,47.5,30.12,SSW,193,0.0,6.0,51,0.00,,---,0.00,432.00,VWS V14.00,2013-02-01 19:36:00,
2013-02-01 11:41:00,64.7,48.7,30.12,South,171,0.0,0.0,56,0.00,,---,0.00,603.00,VWS V14.00,2013-02-01 19:41:00,
2013-02-01 11:46:00,65.0,48.9,30.13,South,173,0.0,0.0,56,0.00,,---,0.00,582.00,VWS V14.00,2013-02-01 19:46:00,
2013-02-01 11:51:00,64.8,48.8,30.13,West,265,0.0,0.0,56,0.00,,---,0.00,554.00,VWS V14.00,2013-02-01 19:51:00,
2013-02-01 11:56:00,64.3,49.2,30.13,SSE,150,0.0,1.0,58,0.00,,---,0.00,561.00,VWS V14.00,2013-02-01 19:56:00,
2013-02-01 12:01:00,64.7,49.6,30.13,South,179,0.0,3.0,58,0.00,,---,0.00,461.00,VWS V14.00,2013-02-01 20:01:00,
2013-02-01 12:06:00,65.2,50.1,30.13,SSW,194,1.0,3.0,58,0.00,,---,0.00,501.00,VWS V14.00,2013-02-01 20:06:00,
2013-02-01 12:11:00,65.0,48.9,30.13,South,178,2.0,4.0,56,0.00,,---,0.00,578.00,VWS V14.00,2013-02-01 20:11:00,
2013-02-01 12:16:00,65.5,48.4,30.11,ESE,114,0.0,3.0,54,0.00,,---,0.00,575.00,VWS V14.00,2013-02-01 20:16:00,
2013-02-01 12:21:00,65.6,48.0,30.11,WSW,254,0.0,0.0,53,0.00,,---,0.00,575.00,VWS V14.00,2013-02-01 20:21:00,
2013-02-01 12:26:00,65.5,48.9,30.11,WNW,295,1.0,1.0,55,0.00,,---,0.00,589.00,VWS V14.00,2013-02-01 20:26:00,
2013-02-01 12:31:00,66.1,49.5,30.10,NW,307,0.0,0.0,55,0.00,,---,0.00,598.00,VWS V14.00,2013-02-01 20:31:00,
2013-02-01 12:36:00,67.3,48.0,30.10,WNW,301,0.0,0.0,50,0.00,,---,0.00,573.00,VWS V14.00,2013-02-01 20:36:00,
2013-02-01 12:41:00,68.1,46.6,30.10,WNW,301,0.0,0.0,46,0.00,,---,0.00,561.00,VWS V14.00,2013-02-01 20:41:00,
2013-02-01 12:46:00,68.4,45.0,30.10,WNW,299,0.0,0.0,43,0.00,,---,0.00,568.00,VWS V14.00,2013-02-01 20:46:00,
2013-02-01 12:51:00,69.8,46.3,30.10,WNW,299,0.0,0.0,43,0.00,,---,0.00,555.00,VWS V14.00,2013-02-01 20:51:00,
2013-02-01 12:56:00,71.5,45.9,30.10,WNW,299,0.0,0.0,40,0.00,,---,0.00,538.00,VWS V14.00,2013-02-01 20:56:00,
2013-02-01 13:01:00,70.6,43.1,30.08,WNW,294,0.0,0.0,37,0.00,,---,0.00,545.00,VWS V14.00,2013-02-01 21:01:00,
2013-02-01 13:06:00,69.9,44.5,30.08,West,268,0.0,0.0,40,0.00,,---,0.00,534.00,VWS V14.00,2013-02-01 21:06:00,
2013-02-01 13:11:00,70.8,47.2,30.08,WSW,247,0.0,0.0,43,0.00,,---,0.00,513.00,VWS V14.00,2013-02-01 21:11:00,
2013-02-01 13:16:00,72.3,48.6,30.08,SE,131,0.0,0.0,43,0.00,,---,0.00,499.00,VWS V14.00,2013-02-01 21:16:00,
2013-02-01 13:21:00,73.0,50.4,30.08,SE,131,0.0,0.0,45,0.00,,---,0.00,475.00,VWS V14.00,2013-02-01 21:21:00,
2013-02-01 13:26:00,73.2,50.0,30.08,East,96,0.0,0.0,44,0.00,,---,0.00,406.00,VWS V14.00,2013-02-01 21:26:00,
2013-02-01 13:31:00,72.7,49.5,30.07,East,95,0.0,0.0,44,0.00,,---,0.00,346.00,VWS V14.00,2013-02-01 21:31:00,
2013-02-01 13:37:00,72.5,50.6,30.07,East,95,0.0,0.0,46,0.00,,---,0.00,367.00,VWS V14.00,2013-02-01 21:37:00,
2013-02-01 13:42:00,71.8,49.9,30.07,East,95,0.0,0.0,46,0.00,,---,0.00,425.00,VWS V14.00,2013-02-01 21:42:00,
2013-02-01 13:47:00,70.9,50.2,30.07,East,95,0.0,0.0,48,0.00,,---,0.00,359.00,VWS V14.00,2013-02-01 21:47:00,
2013-02-01 13:52:00,70.8,48.4,30.07,East,95,0.0,0.0,45,0.00,,---,0.00,311.00,VWS V14.00,2013-02-01 21:52:00,
2013-02-01 13:57:00,70.1,48.4,30.07,East,95,0.0,0.0,46,0.00,,---,0.00,267.00,VWS V14.00,2013-02-01 21:57:00,
2013-02-01 14:02:00,70.3,46.8,30.07,East,95,0.0,0.0,43,0.00,,---,0.00,394.00,VWS V14.00,2013-02-01 22:02:00,
2013-02-01 14:07:00,70.8,46.6,30.07,East,95,0.0,0.0,42,0.00,,---,0.00,471.00,VWS V14.00,2013-02-01 22:07:00,
2013-02-01 14:12:00,71.1,45.6,30.07,East,95,0.0,0.0,40,0.00,,---,0.00,362.00,VWS V14.00,2013-02-01 22:12:00,
2013-02-01 14:17:00,71.6,46.7,30.07,East,95,0.0,0.0,41,0.00,,---,0.00,267.00,VWS V14.00,2013-02-01 22:17:00,
2013-02-01 14:22:00,71.8,46.9,30.07,East,95,0.0,0.0,41,0.00,,---,0.00,339.00,VWS V14.00,2013-02-01 22:22:00,
2013-02-01 14:27:00,71.1,46.9,30.07,WSW,251,1.0,3.0,42,0.00,,---,0.00,359.00,VWS V14.00,2013-02-01 22:27:00,
2013-02-01 14:32:00,69.6,40.8,30.07,WSW,245,0.0,4.0,35,0.00,,---,0.00,355.00,VWS V14.00,2013-02-01 22:32:00,
2013-02-01 14:37:00,68.8,46.0,30.07,West,271,7.0,7.0,44,0.00,,---,0.00,352.00,VWS V14.00,2013-02-01 22:37:00,
2013-02-01 14:42:00,66.9,51.7,30.07,WSW,247,3.0,3.0,58,0.00,,---,0.00,264.00,VWS V14.00,2013-02-01 22:42:00,
2013-02-01 14:47:00,65.8,51.5,30.07,West,272,3.0,6.0,60,0.00,,---,0.00,323.00,VWS V14.00,2013-02-01 22:47:00,
2013-02-01 14:52:00,65.2,51.0,30.07,West,276,6.0,6.0,60,0.00,,---,0.00,311.00,VWS V14.00,2013-02-01 22:52:00,
2013-02-01 14:57:00,65.0,50.8,30.07,West,268,0.0,3.0,60,0.00,,---,0.00,325.00,VWS V14.00,2013-02-01 22:57:00,
2013-02-01 15:02:00,65.2,50.5,30.07,West,267,0.0,4.0,59,0.00,,---,0.00,325.00,VWS V14.00,2013-02-01 23:02:00,
2013-02-01 15:07:00,65.2,50.1,30.07,WSW,245,2.0,5.0,58,0.00,,---,0.00,299.00,VWS V14.00,2013-02-01 23:07:00,
2013-02-01 15:12:00,64.8,50.2,30.07,WSW,254,4.0,6.0,59,0.00,,---,0.00,248.00,VWS V14.00,2013-02-01 23:12:00,
2013-02-01 15:17:00,64.3,50.1,30.06,West,273,5.0,7.0,60,0.00,,---,0.00,211.00,VWS V14.00,2013-02-01 23:17:00,
2013-02-01 15:22:00,63.9,49.8,30.06,West,274,3.0,5.0,60,0.00,,---,0.00,195.00,VWS V14.00,2013-02-01 23:22:00,
2013-02-01 15:27:00,63.4,48.4,30.06,West,276,3.0,10.0,58,0.00,,---,0.00,181.00,VWS V14.00,2013-02-01 23:27:00,
2013-02-01 15:32:00,63.1,48.6,30.07,West,272,11.0,11.0,59,0.00,,---,0.00,176.00,VWS V14.00,2013-02-01 23:32:00,
2013-02-01 15:37:00,63.1,48.6,30.07,West,268,10.0,10.0,59,0.00,,---,0.00,172.00,VWS V14.00,2013-02-01 23:37:00,
2013-02-01 15:42:00,63.1,48.1,30.07,West,274,2.0,5.0,58,0.00,,---,0.00,179.00,VWS V14.00,2013-02-01 23:42:00,
2013-02-01 15:47:00,63.5,46.6,30.07,West,277,0.0,5.0,54,0.00,,---,0.00,179.00,VWS V14.00,2013-02-01 23:47:00,
2013-02-01 15:52:00,64.0,45.0,30.07,NW,314,0.0,1.0,50,0.00,,---,0.00,165.00,VWS V14.00,2013-02-01 23:52:00,
2013-02-01 15:57:00,64.5,44.9,30.07,West,267,4.0,5.0,49,0.00,,---,0.00,151.00,VWS V14.00,2013-02-01 23:57:00,
2013-02-01 16:02:00,64.8,44.7,30.07,West,268,2.0,6.0,48,0.00,,---,0.00,156.00,VWS V14.00,2013-02-02 00:02:00,
2013-02-01 16:07:00,65.2,43.9,30.07,West,270,5.0,6.0,46,0.00,,---,0.00,134.00,VWS V14.00,2013-02-02 00:07:00,
2013-02-01 16:12:00,65.2,43.3,30.07,West,266,6.0,9.0,45,0.00,,---,0.00,125.00,VWS V14.00,2013-02-02 00:12:00,
2013-02-01 16:17:00,65.2,42.8,30.06,WNW,293,3.0,4.0,44,0.00,,---,0.00,102.00,VWS V14.00,2013-02-02 00:17:00,
2013-02-01 16:22:00,65.2,43.3,30.06,West,278,0.0,0.0,45,0.00,,---,0.00,88.00,VWS V14.00,2013-02-02 00:22:00,
2013-02-01 16:27:00,65.0,43.7,30.06,West,278,0.0,0.0,46,0.00,,---,0.00,74.00,VWS V14.00,2013-02-02 00:27:00,
2013-02-01 16:32:00,64.8,45.2,30.05,West,278,0.0,0.0,49,0.00,,---,0.00,62.00,VWS V14.00,2013-02-02 00:32:00,
2013-02-01 16:37:00,64.5,45.5,30.05,West,278,0.0,0.0,50,0.00,,---,0.00,56.00,VWS V14.00,2013-02-02 00:37:00,
2013-02-01 16:42:00,64.5,45.5,30.05,West,278,0.0,0.0,50,0.00,,---,0.00,54.00,VWS V14.00,2013-02-02 00:42:00,
2013-02-01 16:47:00,64.5,46.0,30.05,West,278,0.0,0.0,51,0.00,,---,0.00,46.00,VWS V14.00,2013-02-02 00:47:00,
2013-02-01 16:52:00,64.7,46.7,30.05,West,278,0.0,0.0,52,0.00,,---,0.00,42.00,VWS V14.00,2013-02-02 00:52:00,
2013-02-01 16:57:00,64.7,46.7,30.05,West,278,0.0,0.0,52,0.00,,---,0.00,37.00,VWS V14.00,2013-02-02 00:57:00,
2013-02-01 17:02:00,64.5,47.0,30.04,West,278,0.0,0.0,53,0.00,,---,0.00,28.00,VWS V14.00,2013-02-02 01:02:00,
2013-02-01 17:07:00,64.2,47.2,30.04,West,278,0.0,0.0,54,0.00,,---,0.00,21.00,VWS V14.00,2013-02-02 01:07:00,
2013-02-01 17:12:00,64.0,47.5,30.04,West,278,0.0,0.0,55,0.00,,---,0.00,14.00,VWS V14.00,2013-02-02 01:12:00,
2013-02-01 17:17:00,63.9,47.9,30.05,West,278,0.0,0.0,56,0.00,,---,0.00,9.00,VWS V14.00,2013-02-02 01:17:00,
2013-02-01 17:22:00,63.4,48.4,30.05,West,278,0.0,0.0,58,0.00,,---,0.00,5.00,VWS V14.00,2013-02-02 01:22:00,
2013-02-01 17:27:00,62.7,48.2,30.05,West,278,0.0,0.0,59,0.00,,---,0.00,0.00,VWS V14.00,2013-02-02 01:27:00,
2013-02-01 17:32:00,62.4,47.9,30.05,West,278,0.0,0.0,59,0.00,,---,0.00,0.00,VWS V14.00,2013-02-02 01:32:00,
2013-02-01 17:37:00,62.3,47.3,30.05,West,278,0.0,0.0,58,0.00,,---,0.00,0.00,VWS V14.00,2013-02-02 01:37:00,
2013-02-01 17:42:00,62.1,47.6,30.05,West,278,0.0,0.0,59,0.00,,---,0.00,0.00,VWS V14.00,2013-02-02 01:42:00,
2013-02-01 17:47:00,61.8,46.9,30.05,West,278,0.0,0.0,58,0.00,,---,0.00,0.00,VWS V14.00,2013-02-02 01:47:00,
2013-02-01 17:52:00,61.3,46.4,30.05,West,278,0.0,0.0,58,0.00,,---,0.00,0.00,VWS V14.00,2013-02-02 01:52:00,
2013-02-01 17:57:00,60.7,47.2,30.05,West,278,0.0,0.0,61,0.00,,---,0.00,0.00,VWS V14.00,2013-02-02 01:57:00,
2013-02-01 18:02:00,60.4,47.3,30.06,West,278,0.0,0.0,62,0.00,,---,0.00,0.00,VWS V14.00,2013-02-02 02:02:00,
2013-02-01 18:07:00,60.1,47.0,30.06,West,278,0.0,0.0,62,0.00,,---,0.00,0.00,VWS V14.00,2013-02-02 02:07:00,
2013-02-01 18:12:00,59.9,46.4,30.06,West,278,0.0,0.0,61,0.00,,---,0.00,0.00,VWS V14.00,2013-02-02 02:12:00,
2013-02-01 18:17:00,59.6,46.2,30.07,West,278,0.0,0.0,61,0.00,,---,0.00,0.00,VWS V14.00,2013-02-02 02:17:00,
2013-02-01 18:22:00,59.3,45.9,30.07,West,278,0.0,0.0,61,0.00,,---,0.00,0.00,VWS V14.00,2013-02-02 02:22:00,
2013-02-01 18:27:00,59.2,45.3,30.07,West,278,0.0,0.0,60,0.00,,---,0.00,0.00,VWS V14.00,2013-02-02 02:27:00,
2013-02-01 18:32:00,59.2,44.9,30.07,West,278,0.0,0.0,59,0.00,,---,0.00,0.00,VWS V14.00,2013-02-02 02:32:00,
2013-02-01 18:37:00,59.3,44.5,30.07,West,278,0.0,0.0,58,0.00,,---,0.00,0.00,VWS V14.00,2013-02-02 02:37:00,
2013-02-01 18:42:00,59.3,44.5,30.07,West,278,0.0,0.0,58,0.00,,---,0.00,0.00,VWS V14.00,2013-02-02 02:42:00,
2013-02-01 18:47:00,59.2,44.9,30.08,West,278,0.0,0.0,59,0.00,,---,0.00,0.00,VWS V14.00,2013-02-02 02:47:00,
2013-02-01 18:52:00,59.0,44.7,30.08,West,278,0.0,0.0,59,0.00,,---,0.00,0.00,VWS V14.00,2013-02-02 02:52:00,
2013-02-01 18:57:00,58.9,44.6,30.08,West,278,0.0,0.0,59,0.00,,---,0.00,0.00,VWS V14.00,2013-02-02 02:57:00,
2013-02-01 19:02:00,58.9,44.6,30.08,West,278,0.0,0.0,59,0.00,,---,0.00,0.00,VWS V14.00,2013-02-02 03:02:00,
2013-02-01 19:07:00,58.7,44.4,30.08,West,278,0.0,0.0,59,0.00,,---,0.00,0.00,VWS V14.00,2013-02-02 03:07:00,
2013-02-01 19:12:00,58.6,44.8,30.08,West,278,0.0,0.0,60,0.00,,---,0.00,0.00,VWS V14.00,2013-02-02 03:12:00,
2013-02-01 19:17:00,58.4,45.5,30.08,West,278,0.0,0.0,62,0.00,,---,0.00,0.00,VWS V14.00,2013-02-02 03:17:00,
2013-02-01 19:22:00,58.4,45.5,30.08,West,278,0.0,0.0,62,0.00,,---,0.00,0.00,VWS V14.00,2013-02-02 03:22:00,
2013-02-01 19:27:00,58.4,45.9,30.08,West,278,0.0,0.0,63,0.00,,---,0.00,0.00,VWS V14.00,2013-02-02 03:27:00,
2013-02-01 19:32:00,58.4,46.3,30.09,West,278,0.0,0.0,64,0.00,,---,0.00,0.00,VWS V14.00,2013-02-02 03:32:00,
2013-02-01 19:37:00,58.3,47.0,30.09,West,278,0.0,0.0,66,0.00,,---,0.00,0.00,VWS V14.00,2013-02-02 03:37:00,
2013-02-01 19:43:00,58.1,46.8,30.09,West,278,0.0,0.0,66,0.00,,---,0.00,0.00,VWS V14.00,2013-02-02 03:43:00,
2013-02-01 19:48:00,58.0,47.1,30.09,West,278,0.0,0.0,67,0.00,,---,0.00,0.00,VWS V14.00,2013-02-02 03:48:00,
2013-02-01 19:53:00,57.6,46.7,30.09,West,278,0.0,0.0,67,0.00,,---,0.00,0.00,VWS V14.00,2013-02-02 03:53:00,
2013-02-01 19:58:00,57.5,46.6,30.09,West,278,0.0,0.0,67,0.00,,---,0.00,0.00,VWS V14.00,2013-02-02 03:58:00,
2013-02-01 20:03:00,57.0,46.2,30.09,West,278,0.0,0.0,67,0.00,,---,0.00,0.00,VWS V14.00,2013-02-02 04:03:00,
2013-02-01 20:08:00,56.7,45.9,30.09,West,278,0.0,0.0,67,0.00,,---,0.00,0.00,VWS V14.00,2013-02-02 04:08:00,
2013-02-01 20:13:00,56.6,45.8,30.09,West,278,0.0,0.0,67,0.00,,---,0.00,0.00,VWS V14.00,2013-02-02 04:13:00,
2013-02-01 20:18:00,56.3,45.1,30.09,West,278,0.0,0.0,66,0.00,,---,0.00,0.00,VWS V14.00,2013-02-02 04:18:00,
2013-02-01 20:23:00,56.2,45.4,30.09,West,278,0.0,0.0,67,0.00,,---,0.00,0.00,VWS V14.00,2013-02-02 04:23:00,
2013-02-01 20:28:00,56.2,45.4,30.09,West,278,0.0,0.0,67,0.00,,---,0.00,0.00,VWS V14.00,2013-02-02 04:28:00,
2013-02-01 20:33:00,55.7,44.5,30.10,West,278,0.0,0.0,66,0.00,,---,0.00,0.00,VWS V14.00,2013-02-02 04:33:00,
2013-02-01 20:38:00,55.7,44.9,30.10,West,278,0.0,0.0,67,0.00,,---,0.00,0.00,VWS V14.00,2013-02-02 04:38:00,
2013-02-01 20:43:00,55.7,44.5,30.10,West,278,0.0,0.0,66,0.00,,---,0.00,0.00,VWS V14.00,2013-02-02 04:43:00,
2013-02-01 20:48:00,56.7,48.2,30.10,West,277,0.0,0.0,73,0.00,,---,0.00,0.00,VWS V14.00,2013-02-02 04:48:00,
2013-02-01 20:53:00,57.2,50.1,30.10,West,274,0.0,0.0,77,0.00,,---,0.00,0.00,VWS V14.00,2013-02-02 04:53:00,
2013-02-01 20:58:00,57.0,50.6,30.10,West,274,0.0,0.0,79,0.00,,---,0.00,0.00,VWS V14.00,2013-02-02 04:58:00,
2013-02-01 21:00:00,57.0,50.9,30.10,West,274,0.0,0.0,80,0.00,,---,0.00,0.00,VWS V14.00,2013-02-02 05:00:00,
2013-02-01 21:01:00,57.0,50.9,30.10,West,274,0.0,0.0,80,0.00,,---,0.00,0.00,VWS V14.00,2013-02-02 05:01:00,
2013-02-01 21:06:00,56.7,50.3,30.10,West,274,0.0,0.0,79,0.00,,---,0.00,0.00,VWS V14.00,2013-02-02 05:06:00,
2013-02-01 21:11:00,56.6,49.8,30.10,West,274,0.0,0.0,78,0.00,,---,0.00,0.00,VWS V14.00,2013-02-02 05:11:00,
2013-02-01 21:16:00,56.2,48.8,30.10,West,274,0.0,0.0,76,0.00,,---,0.00,0.00,VWS V14.00,2013-02-02 05:16:00,
2013-02-01 21:21:00,56.0,47.8,30.10,West,274,0.0,0.0,74,0.00,,---,0.00,0.00,VWS V14.00,2013-02-02 05:21:00,
2013-02-01 21:26:00,56.0,47.5,30.10,West,274,0.0,0.0,73,0.00,,---,0.00,0.00,VWS V14.00,2013-02-02 05:26:00,
2013-02-01 21:31:00,55.9,47.0,30.10,West,274,0.0,0.0,72,0.00,,---,0.00,0.00,VWS V14.00,2013-02-02 05:31:00,
2013-02-01 21:36:00,55.9,46.3,30.10,West,274,0.0,0.0,70,0.00,,---,0.00,0.00,VWS V14.00,2013-02-02 05:36:00,
2013-02-01 21:41:00,55.9,45.9,30.10,West,274,0.0,0.0,69,0.00,,---,0.00,0.00,VWS V14.00,2013-02-02 05:41:00,
2013-02-01 21:46:00,55.7,45.3,30.10,West,274,0.0,0.0,68,0.00,,---,0.00,0.00,VWS V14.00,2013-02-02 05:46:00,
2013-02-01 21:51:00,55.7,44.9,30.10,West,274,0.0,0.0,67,0.00,,---,0.00,0.00,VWS V14.00,2013-02-02 05:51:00,
2013-02-01 21:56:00,55.7,44.5,30.10,West,274,0.0,0.0,66,0.00,,---,0.00,0.00,VWS V14.00,2013-02-02 05:56:00,
2013-02-01 22:01:00,55.6,44.0,30.10,West,274,0.0,0.0,65,0.00,,---,0.00,0.00,VWS V14.00,2013-02-02 06:01:00,
2013-02-01 22:06:00,55.4,44.2,30.10,West,274,0.0,0.0,66,0.00,,---,0.00,0.00,VWS V14.00,2013-02-02 06:06:00,
2013-02-01 22:11:00,55.1,44.3,30.10,West,274,0.0,0.0,67,0.00,,---,0.00,0.00,VWS V14.00,2013-02-02 06:11:00,
2013-02-01 22:16:00,55.1,44.3,30.10,West,274,0.0,0.0,67,0.00,,---,0.00,0.00,VWS V14.00,2013-02-02 06:16:00,
2013-02-01 22:21:00,55.0,44.3,30.10,West,274,0.0,0.0,67,0.00,,---,0.00,0.00,VWS V14.00,2013-02-02 06:21:00,
2013-02-01 22:26:00,55.0,43.9,30.10,West,274,0.0,0.0,66,0.00,,---,0.00,0.00,VWS V14.00,2013-02-02 06:26:00,
2013-02-01 22:31:00,54.8,44.1,30.11,West,274,0.0,0.0,67,0.00,,---,0.00,0.00,VWS V14.00,2013-02-02 06:31:00,
2013-02-01 22:36:00,54.8,44.1,30.11,West,274,0.0,0.0,67,0.00,,---,0.00,0.00,VWS V14.00,2013-02-02 06:36:00,
2013-02-01 22:41:00,54.7,44.0,30.11,West,274,0.0,0.0,67,0.00,,---,0.00,0.00,VWS V14.00,2013-02-02 06:41:00,
2013-02-01 22:46:00,54.5,44.2,30.11,West,274,0.0,0.0,68,0.00,,---,0.00,0.00,VWS V14.00,2013-02-02 06:46:00,
2013-02-01 22:51:00,54.4,44.5,30.11,West,274,0.0,0.0,69,0.00,,---,0.00,0.00,VWS V14.00,2013-02-02 06:51:00,
2013-02-01 22:56:00,54.5,45.3,30.11,West,274,0.0,0.0,71,0.00,,---,0.00,0.00,VWS V14.00,2013-02-02 06:56:00,
2013-02-01 23:01:00,54.7,45.9,30.11,West,274,0.0,0.0,72,0.00,,---,0.00,0.00,VWS V14.00,2013-02-02 07:01:00,
2013-02-01 23:06:00,54.8,46.3,30.11,West,274,0.0,0.0,73,0.00,,---,0.00,0.00,VWS V14.00,2013-02-02 07:06:00,
2013-02-01 23:11:00,54.8,46.7,30.11,West,274,0.0,0.0,74,0.00,,---,0.00,0.00,VWS V14.00,2013-02-02 07:11:00,
2013-02-01 23:16:00,54.7,46.9,30.10,West,274,0.0,0.0,75,0.00,,---,0.00,0.00,VWS V14.00,2013-02-02 07:16:00,
2013-02-01 23:21:00,54.7,47.3,30.10,West,274,0.0,0.0,76,0.00,,---,0.00,0.00,VWS V14.00,2013-02-02 07:21:00,
2013-02-01 23:26:00,54.4,47.0,30.10,West,276,0.0,0.0,76,0.00,,---,0.00,0.00,VWS V14.00,2013-02-02 07:26:00,
2013-02-01 23:31:00,54.4,47.3,30.10,West,276,0.0,0.0,77,0.00,,---,0.00,0.00,VWS V14.00,2013-02-02 07:31:00,
2013-02-01 23:36:00,54.4,47.7,30.10,West,276,0.0,0.0,78,0.00,,---,0.00,0.00,VWS V14.00,2013-02-02 07:36:00,
2013-02-01 23:41:00,54.2,47.5,30.10,West,276,0.0,0.0,78,0.00,,---,0.00,0.00,VWS V14.00,2013-02-02 07:41:00,
2013-02-01 23:46:00,54.2,48.2,30.11,West,276,0.0,0.0,80,0.00,,---,0.00,0.00,VWS V14.00,2013-02-02 07:46:00,
2013-02-01 23:51:00,54.1,48.1,30.11,West,276,0.0,0.0,80,0.00,,---,0.00,0.00,VWS V14.00,2013-02-02 07:51:00,
2013-02-01 23:56:00,54.1,48.1,30.11,West,276,0.0,0.0,80,0.00,,---,0.00,0.00,VWS V14.00,2013-02-02 07:56:00,